createdAt,value
2019-03-11T00:02:27.104Z,16.50
2019-03-11T00:04:56.719Z,16.50
2019-03-11T00:07:25.816Z,16.50
2019-03-11T00:09:54.958Z,16.50
2019-03-11T00:12:24.002Z,16.50
2019-03-11T00:14:53.099Z,16.50
2019-03-11T00:17:22.364Z,16.50
2019-03-11T00:19:52.181Z,16.50
2019-03-11T00:22:21.207Z,16.50
2019-03-11T00:24:50.303Z,16.50
2019-03-11T00:27:19.396Z,16.50
2019-03-11T00:29:49.428Z,16.50
2019-03-11T00:32:17.583Z,16.50
2019-03-11T00:34:46.876Z,16.50
2019-03-11T00:37:16.055Z,16.50
2019-03-11T00:39:45.079Z,16.50
2019-03-11T00:42:13.965Z,16.40
2019-03-11T00:44:43.874Z,16.40
2019-03-11T00:47:13.164Z,16.40
2019-03-11T00:49:42.681Z,16.40
2019-03-11T00:52:11.774Z,16.40
2019-03-11T00:54:40.841Z,16.40
2019-03-11T00:57:10.408Z,16.40
2019-03-11T00:59:39.436Z,16.40
2019-03-11T01:02:08.629Z,16.40
2019-03-11T01:04:38.069Z,16.40
2019-03-11T01:07:07.145Z,16.40
2019-03-11T01:09:36.266Z,16.40
2019-03-11T01:12:05.734Z,16.40
2019-03-11T01:14:35.884Z,16.40
2019-03-11T01:17:04.575Z,16.40
2019-03-11T01:19:33.670Z,16.40
2019-03-11T01:22:02.963Z,16.40
2019-03-11T01:24:31.856Z,16.40
2019-03-11T01:27:00.951Z,16.40
2019-03-11T01:29:30.057Z,16.40
2019-03-11T01:31:59.318Z,16.40
2019-03-11T01:34:28.236Z,16.40
2019-03-11T01:36:57.390Z,16.40
2019-03-11T01:39:26.450Z,16.40
2019-03-11T01:41:55.726Z,16.40
2019-03-11T01:44:24.842Z,16.40
2019-03-11T01:46:54.119Z,16.40
2019-03-11T01:49:24.040Z,16.40
2019-03-11T01:51:52.513Z,16.40
2019-03-11T01:54:21.805Z,16.40
2019-03-11T01:56:51.126Z,16.40
2019-03-11T01:59:20.212Z,16.40
2019-03-11T02:01:49.488Z,16.40
2019-03-11T02:04:18.400Z,16.40
2019-03-11T02:06:47.499Z,16.40
2019-03-11T02:09:16.674Z,16.40
2019-03-11T02:11:45.892Z,16.40
2019-03-11T02:14:14.785Z,16.40
2019-03-11T02:16:44.279Z,16.40
2019-03-11T02:19:13.359Z,16.40
2019-03-11T02:21:42.271Z,16.40
2019-03-11T02:24:11.761Z,16.40
2019-03-11T02:26:40.951Z,16.40
2019-03-11T02:29:10.181Z,16.40
2019-03-11T02:31:39.269Z,16.40
2019-03-11T02:34:08.351Z,16.40
2019-03-11T02:36:37.605Z,16.40
2019-03-11T02:39:07.171Z,16.40
2019-03-11T02:41:36.469Z,16.40
2019-03-11T02:44:05.974Z,16.40
2019-03-11T02:46:35.265Z,16.40
2019-03-11T02:49:04.372Z,16.40
2019-03-11T02:51:33.256Z,16.40
2019-03-11T02:54:02.760Z,16.40
2019-03-11T02:56:32.237Z,16.40
2019-03-11T02:59:01.771Z,16.40
2019-03-11T03:01:38.002Z,16.40
2019-03-11T03:04:12.866Z,16.40
2019-03-11T03:06:42.784Z,16.40
2019-03-11T03:09:14.305Z,16.40
2019-03-11T03:11:43.625Z,16.30
2019-03-11T03:14:12.930Z,16.30
2019-03-11T03:16:42.026Z,16.30
2019-03-11T03:19:11.071Z,16.30
2019-03-11T03:21:40.007Z,16.30
2019-03-11T03:24:09.481Z,16.30
2019-03-11T03:26:38.813Z,16.30
2019-03-11T03:29:07.997Z,16.30
2019-03-11T03:31:37.030Z,16.30
2019-03-11T03:34:06.688Z,16.40
2019-03-11T03:36:35.812Z,16.40
2019-03-11T03:39:05.606Z,16.40
2019-03-11T03:41:35.199Z,16.40
2019-03-11T03:44:04.321Z,16.40
2019-03-11T03:46:33.415Z,16.40
2019-03-11T03:49:02.712Z,16.40
2019-03-11T03:51:32.036Z,16.40
2019-03-11T03:54:01.105Z,16.40
2019-03-11T03:56:30.827Z,16.40
2019-03-11T03:58:59.896Z,16.40
2019-03-11T04:01:31.693Z,16.40
2019-03-11T04:04:01.940Z,16.40
2019-03-11T04:06:31.101Z,16.40
2019-03-11T04:08:59.981Z,16.40
2019-03-11T04:11:29.287Z,16.30
2019-03-11T04:13:58.382Z,16.30
2019-03-11T04:16:27.452Z,16.30
2019-03-11T04:18:57.717Z,16.30
2019-03-11T04:21:26.693Z,16.30
2019-03-11T04:23:55.780Z,16.30
2019-03-11T04:26:30.613Z,16.30
2019-03-11T04:28:59.709Z,16.30
2019-03-11T04:31:28.768Z,16.30
2019-03-11T04:33:57.691Z,16.30
2019-03-11T04:36:26.793Z,16.30
2019-03-11T04:38:56.082Z,16.30
2019-03-11T04:41:24.978Z,16.30
2019-03-11T04:43:53.861Z,16.30
2019-03-11T04:46:23.061Z,16.30
2019-03-11T04:48:52.052Z,16.30
2019-03-11T04:51:21.147Z,16.30
2019-03-11T04:53:50.826Z,16.30
2019-03-11T04:56:19.956Z,16.30
2019-03-11T04:58:49.218Z,16.30
2019-03-11T05:01:18.521Z,16.30
2019-03-11T05:03:48.064Z,16.30
2019-03-11T05:06:17.826Z,16.30
2019-03-11T05:08:46.872Z,16.30
2019-03-11T05:11:15.958Z,16.30
2019-03-11T05:13:45.423Z,16.30
2019-03-11T05:16:14.526Z,16.30
2019-03-11T05:18:43.462Z,16.30
2019-03-11T05:21:12.753Z,16.30
2019-03-11T05:23:41.787Z,16.30
2019-03-11T05:26:11.555Z,16.30
2019-03-11T05:28:41.028Z,16.30
2019-03-11T05:31:10.153Z,16.30
2019-03-11T05:33:39.043Z,16.30
2019-03-11T05:36:08.555Z,16.30
2019-03-11T05:38:37.645Z,16.30
2019-03-11T05:41:08.845Z,16.30
2019-03-11T05:43:36.240Z,16.30
2019-03-11T05:46:05.336Z,16.30
2019-03-11T05:48:34.436Z,16.30
2019-03-11T05:51:04.142Z,16.30
2019-03-11T05:53:33.237Z,16.30
2019-03-11T05:56:02.303Z,16.30
2019-03-11T05:58:31.426Z,16.30
2019-03-11T06:01:00.742Z,16.30
2019-03-11T06:03:30.233Z,16.30
2019-03-11T06:05:59.127Z,16.30
2019-03-11T06:08:29.035Z,16.30
2019-03-11T06:10:57.927Z,16.30
2019-03-11T06:13:35.559Z,16.30
2019-03-11T06:15:56.726Z,16.30
2019-03-11T06:18:45.666Z,16.30
2019-03-11T06:21:18.451Z,16.30
2019-03-11T06:23:47.640Z,16.30
2019-03-11T06:26:16.663Z,16.20
2019-03-11T06:28:46.372Z,16.20
2019-03-11T06:31:15.849Z,16.20
2019-03-11T06:33:44.768Z,16.20
2019-03-11T06:36:14.276Z,16.20
2019-03-11T06:38:43.418Z,16.20
2019-03-11T06:41:12.462Z,16.20
2019-03-11T06:43:41.407Z,16.20
2019-03-11T06:46:10.658Z,16.20
2019-03-11T06:48:39.873Z,16.20
2019-03-11T06:51:09.455Z,16.20
2019-03-11T06:53:38.855Z,16.20
2019-03-11T06:56:08.123Z,16.20
2019-03-11T06:58:37.601Z,16.20
2019-03-11T07:01:06.763Z,16.30
2019-03-11T07:03:35.857Z,16.30
2019-03-11T07:06:05.356Z,16.30
2019-03-11T07:08:34.453Z,16.30
2019-03-11T07:11:03.546Z,16.30
2019-03-11T07:13:32.642Z,16.30
2019-03-11T07:16:01.949Z,16.30
2019-03-11T07:18:31.039Z,16.20
2019-03-11T07:21:00.542Z,16.20
2019-03-11T07:23:29.638Z,16.20
2019-03-11T07:25:58.746Z,16.20
2019-03-11T07:28:28.046Z,16.20
2019-03-11T07:30:56.938Z,16.20
2019-03-11T07:33:26.106Z,16.20
2019-03-11T07:35:55.622Z,16.20
2019-03-11T07:38:24.512Z,16.20
2019-03-11T07:40:53.578Z,16.20
2019-03-11T07:43:22.687Z,16.20
2019-03-11T07:45:51.776Z,16.20
2019-03-11T07:48:20.691Z,16.20
2019-03-11T07:50:49.783Z,16.20
2019-03-11T07:53:19.084Z,16.20
2019-03-11T07:55:48.400Z,16.20
2019-03-11T07:58:17.477Z,16.20
2019-03-11T08:00:53.889Z,16.20
2019-03-11T08:03:16.079Z,16.20
2019-03-11T08:05:45.282Z,16.20
2019-03-11T08:08:14.277Z,16.20
2019-03-11T08:10:43.587Z,16.20
2019-03-11T08:13:13.078Z,16.30
2019-03-11T08:15:42.176Z,16.30
2019-03-11T08:18:11.067Z,16.30
2019-03-11T08:20:40.356Z,16.30
2019-03-11T08:23:09.456Z,16.30
2019-03-11T08:25:38.344Z,16.30
2019-03-11T08:28:07.859Z,16.30
2019-03-11T08:30:37.116Z,16.30
2019-03-11T08:33:06.249Z,16.30
2019-03-11T08:35:35.777Z,16.30
2019-03-11T08:38:05.644Z,16.30
2019-03-11T08:40:34.759Z,16.30
2019-03-11T08:43:04.054Z,16.30
2019-03-11T08:45:33.362Z,16.30
2019-03-11T08:48:03.077Z,16.30
2019-03-11T08:50:32.059Z,16.20
2019-03-11T08:53:01.055Z,16.20
2019-03-11T08:55:30.522Z,16.20
2019-03-11T08:57:59.486Z,16.20
2019-03-11T09:00:28.969Z,16.20
2019-03-11T09:02:58.461Z,16.20
2019-03-11T09:05:27.538Z,16.20
2019-03-11T09:07:57.058Z,16.20
2019-03-11T09:10:26.353Z,16.20
2019-03-11T09:12:56.272Z,16.20
2019-03-11T09:15:25.573Z,16.20
2019-03-11T09:17:54.461Z,16.20
2019-03-11T09:20:23.758Z,16.20
2019-03-11T09:22:52.751Z,16.30
2019-03-11T09:25:22.153Z,16.20
2019-03-11T09:27:51.333Z,16.30
2019-03-11T09:30:20.753Z,16.20
2019-03-11T09:32:50.057Z,16.30
2019-03-11T09:35:18.954Z,16.20
2019-03-11T09:37:48.046Z,16.30
2019-03-11T09:40:17.546Z,16.20
2019-03-11T09:42:46.643Z,16.20
2019-03-11T09:45:16.142Z,16.20
2019-03-11T09:47:45.444Z,16.20
2019-03-11T09:50:14.643Z,16.20
2019-03-11T09:52:43.944Z,16.20
2019-03-11T09:55:13.209Z,16.20
2019-03-11T09:57:42.293Z,16.20
2019-03-11T10:00:14.697Z,16.20
2019-03-11T10:02:52.530Z,16.20
2019-03-11T10:05:13.368Z,16.20
2019-03-11T10:07:43.577Z,16.20
2019-03-11T10:10:13.444Z,16.20
2019-03-11T10:12:43.092Z,16.20
2019-03-11T10:15:14.153Z,16.20
2019-03-11T10:17:43.191Z,16.20
2019-03-11T10:20:12.849Z,16.20
2019-03-11T10:22:41.797Z,16.20
2019-03-11T10:25:10.884Z,16.30
2019-03-11T10:27:40.032Z,16.30
2019-03-11T10:30:11.183Z,16.30
2019-03-11T10:32:41.099Z,16.30
2019-03-11T10:35:30.208Z,16.30
2019-03-11T10:37:40.483Z,16.30
2019-03-11T10:40:11.969Z,16.30
2019-03-11T10:42:41.278Z,16.30
2019-03-11T10:45:11.525Z,16.30
2019-03-11T10:47:40.624Z,16.30
2019-03-11T10:50:10.373Z,16.30
2019-03-11T10:52:39.835Z,16.30
2019-03-11T10:55:10.158Z,16.30
2019-03-11T10:57:39.455Z,16.30
2019-03-11T11:00:11.795Z,16.30
2019-03-11T11:02:40.724Z,16.30
2019-03-11T11:05:10.827Z,16.30
2019-03-11T11:07:39.839Z,16.30
2019-03-11T11:10:09.563Z,16.30
2019-03-11T11:12:39.354Z,16.30
2019-03-11T11:15:12.753Z,16.30
2019-03-11T11:17:41.704Z,16.30
2019-03-11T11:20:11.355Z,16.30
2019-03-11T11:22:40.445Z,16.30
2019-03-11T11:25:11.249Z,16.30
2019-03-11T11:27:40.685Z,16.30
2019-03-11T11:30:13.054Z,16.30
2019-03-11T11:32:41.940Z,16.30
2019-03-11T11:35:11.248Z,16.30
2019-03-11T11:37:41.182Z,16.30
2019-03-11T11:40:13.434Z,16.40
2019-03-11T11:42:42.421Z,16.40
2019-03-11T11:45:29.415Z,16.40
2019-03-11T11:48:02.146Z,16.40
2019-03-11T11:50:33.135Z,16.40
2019-03-11T11:53:02.158Z,16.40
2019-03-11T11:55:31.038Z,16.40
2019-03-11T11:58:00.137Z,16.40
2019-03-11T12:00:30.273Z,16.30
2019-03-11T12:03:00.349Z,16.30
2019-03-11T12:05:30.308Z,16.30
2019-03-11T12:08:00.408Z,16.30
2019-03-11T12:10:29.817Z,16.30
2019-03-11T12:12:59.593Z,16.30
2019-03-11T12:15:28.956Z,16.30
2019-03-11T12:17:59.082Z,16.30
2019-03-11T12:20:28.547Z,16.30
2019-03-11T12:22:58.086Z,16.30
2019-03-11T12:25:27.148Z,16.30
2019-03-11T12:27:58.244Z,16.30
2019-03-11T12:30:26.744Z,16.20
2019-03-11T12:32:56.072Z,16.20
2019-03-11T12:35:25.330Z,16.20
2019-03-11T12:37:54.460Z,16.20
2019-03-11T12:40:23.762Z,16.20
2019-03-11T12:42:52.655Z,16.20
2019-03-11T12:45:22.344Z,16.30
2019-03-11T12:47:51.309Z,16.30
2019-03-11T12:50:20.943Z,16.30
2019-03-11T12:52:50.165Z,16.30
2019-03-11T12:55:21.360Z,16.30
2019-03-11T12:57:50.910Z,16.30
2019-03-11T13:00:20.423Z,16.30
2019-03-11T13:02:49.708Z,16.30
2019-03-11T13:05:18.913Z,16.30
2019-03-11T13:07:47.910Z,16.30
2019-03-11T13:10:18.634Z,16.40
2019-03-11T13:12:47.738Z,16.30
2019-03-11T13:15:16.887Z,16.30
2019-03-11T13:17:46.168Z,16.30
2019-03-11T13:20:19.546Z,16.30
2019-03-11T13:22:49.656Z,16.30
2019-03-11T13:25:18.948Z,16.30
2019-03-11T13:27:48.035Z,16.40
2019-03-11T13:30:17.305Z,16.30
2019-03-11T13:32:46.836Z,16.30
2019-03-11T13:35:15.936Z,16.40
2019-03-11T13:37:45.014Z,16.40
2019-03-11T13:40:15.098Z,16.40
2019-03-11T13:42:44.420Z,16.40
2019-03-11T13:45:13.552Z,16.30
2019-03-11T13:47:42.640Z,16.40
2019-03-11T13:50:11.935Z,16.30
2019-03-11T13:52:41.182Z,16.30
2019-03-11T13:55:10.805Z,16.40
2019-03-11T13:57:39.635Z,16.40
2019-03-11T14:00:08.984Z,16.30
2019-03-11T14:02:38.030Z,16.40
2019-03-11T14:05:07.330Z,16.30
2019-03-11T14:07:36.423Z,16.40
2019-03-11T14:10:05.928Z,16.40
2019-03-11T14:12:35.032Z,16.40
2019-03-11T14:15:04.126Z,16.40
2019-03-11T14:17:33.214Z,16.40
2019-03-11T14:20:02.311Z,16.50
2019-03-11T14:22:31.786Z,16.50
2019-03-11T14:25:00.718Z,16.50
2019-03-11T14:27:29.895Z,16.60
2019-03-11T14:29:59.507Z,16.60
2019-03-11T14:32:28.453Z,16.60
2019-03-11T14:34:57.494Z,16.70
2019-03-11T14:37:26.793Z,16.70
2019-03-11T14:39:55.899Z,16.70
2019-03-11T14:42:24.915Z,16.70
2019-03-11T14:44:54.453Z,16.70
2019-03-11T14:47:23.378Z,16.70
2019-03-11T14:49:52.583Z,16.70
2019-03-11T14:52:21.793Z,16.80
2019-03-11T14:54:50.840Z,16.80
2019-03-11T14:57:19.715Z,16.80
2019-03-11T14:59:49.068Z,16.80
2019-03-11T15:02:18.500Z,16.80
2019-03-11T15:04:47.661Z,16.90
2019-03-11T15:07:16.969Z,16.90
2019-03-11T15:09:51.379Z,16.90
2019-03-11T15:12:15.431Z,16.90
2019-03-11T15:14:44.649Z,16.90
2019-03-11T15:17:13.906Z,16.90
2019-03-11T15:19:43.661Z,16.90
2019-03-11T15:22:12.760Z,17.00
2019-03-11T15:24:42.671Z,17.00
2019-03-11T15:27:12.395Z,17.00
2019-03-11T15:29:41.489Z,17.00
2019-03-11T15:32:10.384Z,17.00
2019-03-11T15:34:40.484Z,17.00
2019-03-11T15:37:09.722Z,17.00
2019-03-11T15:39:39.075Z,17.00
2019-03-11T15:42:08.080Z,17.00
2019-03-11T15:44:37.036Z,17.00
2019-03-11T15:47:06.999Z,17.00
2019-03-11T15:49:36.326Z,17.10
2019-03-11T15:52:05.584Z,17.10
2019-03-11T15:54:35.094Z,17.10
2019-03-11T15:57:04.727Z,17.10
2019-03-11T15:59:33.969Z,17.10
2019-03-11T16:02:03.606Z,17.10
2019-03-11T16:04:32.700Z,17.10
2019-03-11T16:07:02.214Z,17.10
2019-03-11T16:09:31.919Z,17.10
2019-03-11T16:12:01.007Z,17.10
2019-03-11T16:14:30.100Z,17.10
2019-03-11T16:16:59.685Z,17.10
2019-03-11T16:19:28.915Z,17.10
2019-03-11T16:21:58.209Z,17.10
2019-03-11T16:24:27.930Z,17.20
2019-03-11T16:26:57.339Z,17.20
2019-03-11T16:29:26.541Z,17.20
2019-03-11T16:31:55.991Z,17.20
2019-03-11T16:34:25.117Z,17.30
2019-03-11T16:36:54.226Z,17.30
2019-03-11T16:39:23.516Z,17.30
2019-03-11T16:41:52.589Z,17.30
2019-03-11T16:44:22.318Z,17.30
2019-03-11T16:46:51.411Z,17.30
2019-03-11T16:49:20.871Z,17.30
2019-03-11T16:51:50.600Z,17.30
2019-03-11T16:54:19.886Z,17.30
2019-03-11T16:56:49.023Z,17.40
2019-03-11T16:59:18.900Z,17.40
2019-03-11T17:01:48.030Z,17.40
2019-03-11T17:04:17.239Z,17.40
2019-03-11T17:06:46.844Z,17.40
2019-03-11T17:09:16.307Z,17.50
2019-03-11T17:11:49.129Z,17.50
2019-03-11T17:14:18.224Z,17.50
2019-03-11T17:16:47.540Z,17.60
2019-03-11T17:19:17.200Z,17.70
2019-03-11T17:21:46.327Z,17.70
2019-03-11T17:24:15.471Z,17.70
2019-03-11T17:26:44.906Z,17.70
2019-03-11T17:29:14.021Z,17.80
2019-03-11T17:31:43.317Z,17.80
2019-03-11T17:34:12.824Z,17.90
2019-03-11T17:36:42.277Z,17.90
2019-03-11T17:39:11.423Z,17.90
2019-03-11T17:41:40.341Z,18.00
2019-03-11T17:44:09.821Z,18.10
2019-03-11T17:46:39.631Z,18.10
2019-03-11T17:49:12.295Z,18.10
2019-03-11T17:51:41.596Z,18.20
2019-03-11T17:54:11.175Z,18.20
2019-03-11T17:56:41.336Z,18.30
2019-03-11T17:59:10.330Z,18.30
2019-03-11T18:01:39.532Z,18.30
2019-03-11T18:04:08.630Z,18.40
2019-03-11T18:06:37.921Z,18.40
2019-03-11T18:09:07.796Z,18.40
2019-03-11T18:11:36.926Z,18.40
2019-03-11T18:14:06.436Z,18.50
2019-03-11T18:16:35.536Z,18.50
2019-03-11T18:19:05.045Z,18.50
2019-03-11T18:21:34.336Z,18.50
2019-03-11T18:24:03.621Z,18.50
2019-03-11T18:26:35.519Z,18.60
2019-03-11T18:29:05.677Z,18.60
2019-03-11T18:31:38.388Z,18.60
2019-03-11T18:34:07.711Z,18.60
2019-03-11T18:36:37.170Z,18.60
2019-03-11T18:39:07.961Z,18.60
2019-03-11T18:41:37.139Z,18.60
2019-03-11T18:44:07.919Z,18.50
2019-03-11T18:46:37.176Z,18.50
2019-03-11T18:49:06.268Z,18.50
2019-03-11T18:51:35.892Z,18.50
2019-03-11T18:54:05.951Z,18.40
2019-03-11T18:56:35.267Z,18.40
2019-03-11T18:59:05.243Z,18.40
2019-03-11T19:01:34.416Z,18.30
2019-03-11T19:04:03.531Z,18.30
2019-03-11T19:06:33.226Z,18.30
2019-03-11T19:09:02.511Z,18.30
2019-03-11T19:11:34.887Z,18.30
2019-03-11T19:14:04.652Z,18.20
2019-03-11T19:16:34.336Z,18.20
2019-03-11T19:19:03.613Z,18.20
2019-03-11T19:21:33.112Z,18.20
2019-03-11T19:24:02.813Z,18.20
2019-03-11T19:26:32.564Z,18.10
2019-03-11T19:29:02.273Z,18.10
2019-03-11T19:31:31.316Z,18.10
2019-03-11T19:34:01.034Z,18.10
2019-03-11T19:36:33.552Z,18.10
2019-03-11T19:39:01.477Z,18.10
2019-03-11T19:41:32.003Z,18.10
2019-03-11T19:44:01.498Z,18.10
2019-03-11T19:46:31.340Z,18.20
2019-03-11T19:49:01.143Z,18.20
2019-03-11T19:51:30.452Z,18.10
2019-03-11T19:53:59.708Z,18.20
2019-03-11T19:56:29.872Z,18.20
2019-03-11T19:58:59.810Z,18.20
2019-03-11T20:01:29.253Z,18.20
2019-03-11T20:03:58.857Z,18.20
2019-03-11T20:06:28.102Z,18.20
2019-03-11T20:08:57.606Z,18.20
2019-03-11T20:11:26.567Z,18.20
2019-03-11T20:13:58.509Z,18.20
2019-03-11T20:16:28.602Z,18.20
2019-03-11T20:18:57.856Z,18.20
2019-03-11T20:21:27.159Z,18.20
2019-03-11T20:23:56.256Z,18.20
2019-03-11T20:26:25.549Z,18.20
2019-03-11T20:28:54.916Z,18.20
2019-03-11T20:31:25.703Z,18.10
2019-03-11T20:33:55.003Z,18.10
2019-03-11T20:36:26.229Z,18.10
2019-03-11T20:38:55.531Z,18.10
2019-03-11T20:41:24.568Z,18.10
2019-03-11T20:43:54.236Z,18.10
2019-03-11T20:46:23.732Z,18.10
2019-03-11T20:48:52.886Z,18.10
2019-03-11T20:51:22.126Z,18.10
2019-03-11T20:53:51.443Z,18.10
2019-03-11T20:56:20.576Z,18.10
2019-03-11T20:58:50.455Z,18.10
2019-03-11T21:01:19.594Z,18.10
2019-03-11T21:03:49.102Z,18.10
2019-03-11T21:06:18.708Z,18.10
2019-03-11T21:08:48.096Z,18.00
2019-03-11T21:11:17.987Z,18.00
2019-03-11T21:13:48.613Z,18.00
2019-03-11T21:16:17.600Z,18.00
2019-03-11T21:18:46.685Z,18.00
2019-03-11T21:21:16.043Z,18.00
2019-03-11T21:23:45.109Z,18.00
2019-03-11T21:26:14.359Z,18.00
2019-03-11T21:28:43.777Z,18.00
2019-03-11T21:31:13.342Z,18.00
2019-03-11T21:33:42.301Z,18.00
2019-03-11T21:36:11.718Z,18.00
2019-03-11T21:38:40.799Z,18.00
2019-03-11T21:41:10.909Z,18.00
2019-03-11T21:43:40.593Z,18.00
2019-03-11T21:46:10.081Z,18.00
2019-03-11T21:48:39.382Z,18.00
2019-03-11T21:51:09.055Z,18.00
2019-03-11T21:53:38.650Z,18.00
2019-03-11T21:56:08.195Z,18.00
2019-03-11T21:58:37.321Z,18.00
2019-03-11T22:01:07.146Z,18.00
2019-03-11T22:03:36.333Z,18.00
2019-03-11T22:06:05.773Z,18.00
2019-03-11T22:08:35.347Z,18.00
2019-03-11T22:13:58.319Z,18.00
2019-03-11T22:16:27.213Z,18.00
2019-03-11T22:18:56.672Z,18.00
2019-03-11T22:21:26.017Z,18.00
2019-03-11T22:23:55.558Z,18.00
2019-03-11T22:26:25.233Z,18.00
2019-03-11T22:28:54.526Z,18.00
2019-03-11T22:31:24.208Z,18.00
2019-03-11T22:33:53.571Z,18.00
2019-03-11T22:36:24.044Z,18.00
2019-03-11T22:38:53.544Z,18.00
2019-03-11T22:41:22.865Z,18.00
2019-03-11T22:43:52.487Z,18.00
2019-03-11T22:46:21.733Z,18.00
2019-03-11T22:48:51.593Z,18.00
2019-03-11T22:51:20.820Z,18.00
2019-03-11T22:53:51.678Z,18.00
2019-03-11T22:56:18.937Z,18.00
2019-03-11T22:58:48.377Z,18.00
2019-03-11T23:01:18.109Z,18.00
2019-03-11T23:03:52.111Z,18.00
2019-03-11T23:06:21.197Z,18.00
2019-03-11T23:08:50.492Z,18.10
2019-03-11T23:11:19.589Z,18.10
2019-03-11T23:13:48.681Z,18.10
2019-03-11T23:16:19.188Z,18.10
2019-03-11T23:18:48.517Z,18.00
2019-03-11T23:21:18.067Z,18.00
2019-03-11T23:23:47.523Z,18.00
2019-03-11T23:26:17.053Z,18.00
2019-03-11T23:28:46.744Z,18.00
2019-03-11T23:31:16.247Z,18.00
2019-03-11T23:33:45.346Z,18.00
2019-03-11T23:36:14.636Z,18.00
2019-03-11T23:38:43.732Z,18.00
2019-03-11T23:41:13.777Z,18.00
2019-03-11T23:43:43.502Z,18.00
2019-03-11T23:46:12.702Z,18.00
2019-03-11T23:48:42.163Z,18.00
2019-03-11T23:51:11.664Z,18.00
2019-03-11T23:53:40.554Z,17.90
2019-03-11T23:56:09.647Z,17.90
2019-03-11T23:58:39.173Z,17.90
